sensor_id;sensor_type;location;lat;lon;timestamp;pressure;altitude;pressure_sealevel;temperature;humidity
13050;BME280;6591;51.446;5.404;2023-07-31T00:02:00;100769.69;;;22.55;59.65
13050;BME280;6591;51.446;5.404;2023-07-31T00:04:27;100771.53;;;22.54;59.85
13050;BME280;6591;51.446;5.404;2023-07-31T00:06:54;100766.13;;;22.54;59.68
13050;BME280;6591;51.446;5.404;2023-07-31T00:09:21;100765.25;;;22.54;60.03
13050;BME280;6591;51.446;5.404;2023-07-31T00:11:48;100764.25;;;22.55;59.82
13050;BME280;6591;51.446;5.404;2023-07-31T00:14:16;100772.38;;;22.55;60.25
13050;BME280;6591;51.446;5.404;2023-07-31T00:16:43;100776.63;;;22.57;59.84
13050;BME280;6591;51.446;5.404;2023-07-31T00:19:10;100752.44;;;22.56;60.12
13050;BME280;6591;51.446;5.404;2023-07-31T00:21:37;100755.84;;;22.58;59.78
13050;BME280;6591;51.446;5.404;2023-07-31T00:24:04;100752.28;;;22.57;59.65
13050;BME280;6591;51.446;5.404;2023-07-31T00:26:31;100759.41;;;22.58;60.19
13050;BME280;6591;51.446;5.404;2023-07-31T00:28:58;100756.84;;;22.57;60.29
13050;BME280;6591;51.446;5.404;2023-07-31T00:31:25;100754.97;;;22.57;60.10
13050;BME280;6591;51.446;5.404;2023-07-31T00:33:53;100753.97;;;22.58;60.01
13050;BME280;6591;51.446;5.404;2023-07-31T00:36:20;100756.69;;;22.58;60.18
13050;BME280;6591;51.446;5.404;2023-07-31T00:38:48;100760.13;;;22.60;59.98
13050;BME280;6591;51.446;5.404;2023-07-31T00:41:16;100754.69;;;22.60;59.98
13050;BME280;6591;51.446;5.404;2023-07-31T00:43:43;100753.00;;;22.59;59.88
13050;BME280;6591;51.446;5.404;2023-07-31T00:46:10;100752.00;;;22.60;59.73
13050;BME280;6591;51.446;5.404;2023-07-31T00:48:39;100750.16;;;22.61;59.73
13050;BME280;6591;51.446;5.404;2023-07-31T00:51:08;100747.56;;;22.59;59.66
13050;BME280;6591;51.446;5.404;2023-07-31T00:53:36;100737.75;;;22.58;59.85
13050;BME280;6591;51.446;5.404;2023-07-31T00:56:04;100736.75;;;22.59;59.76
13050;BME280;6591;51.446;5.404;2023-07-31T00:58:31;100744.16;;;22.57;59.99
13050;BME280;6591;51.446;5.404;2023-07-31T01:00:59;100745.56;;;22.61;59.58
13050;BME280;6591;51.446;5.404;2023-07-31T01:03:26;100747.56;;;22.59;59.89
13050;BME280;6591;51.446;5.404;2023-07-31T01:06:19;100739.06;;;22.54;59.76
13050;BME280;6591;51.446;5.404;2023-07-31T01:09:11;100742.44;;;22.56;59.49
13050;BME280;6591;51.446;5.404;2023-07-31T01:11:53;100738.34;;;22.52;59.83
13050;BME280;6591;51.446;5.404;2023-07-31T01:14:23;100733.63;;;22.54;59.79
13050;BME280;6591;51.446;5.404;2023-07-31T01:16:50;100735.34;;;22.55;59.61
13050;BME280;6591;51.446;5.404;2023-07-31T01:19:23;100730.06;;;22.54;59.54
13050;BME280;6591;51.446;5.404;2023-07-31T01:28:11;100735.94;;;22.49;59.49
13050;BME280;6591;51.446;5.404;2023-07-31T01:30:47;100739.50;;;22.50;59.44
13050;BME280;6591;51.446;5.404;2023-07-31T01:33:18;100737.34;;;22.53;59.34
13050;BME280;6591;51.446;5.404;2023-07-31T01:35:48;100733.63;;;22.54;59.19
13050;BME280;6591;51.446;5.404;2023-07-31T01:38:20;100728.09;;;22.56;58.96
13050;BME280;6591;51.446;5.404;2023-07-31T01:40:52;100727.91;;;22.57;58.92
13050;BME280;6591;51.446;5.404;2023-07-31T01:43:20;100731.19;;;22.61;58.92
13050;BME280;6591;51.446;5.404;2023-07-31T01:45:47;100730.16;;;22.62;58.61
13050;BME280;6591;51.446;5.404;2023-07-31T01:48:17;100731.19;;;22.61;58.81
13050;BME280;6591;51.446;5.404;2023-07-31T01:50:44;100734.72;;;22.61;58.54
13050;BME280;6591;51.446;5.404;2023-07-31T01:53:11;100726.59;;;22.61;58.92
13050;BME280;6591;51.446;5.404;2023-07-31T01:55:39;100725.59;;;22.62;58.41
13050;BME280;6591;51.446;5.404;2023-07-31T01:58:07;100717.66;;;22.61;58.48
13050;BME280;6591;51.446;5.404;2023-07-31T02:00:34;100725.91;;;22.59;58.36
13050;BME280;6591;51.446;5.404;2023-07-31T02:03:01;100713.25;;;22.60;58.18
13050;BME280;6591;51.446;5.404;2023-07-31T02:05:29;100713.38;;;22.58;57.92
13050;BME280;6591;51.446;5.404;2023-07-31T02:07:56;100709.69;;;22.59;57.90
13050;BME280;6591;51.446;5.404;2023-07-31T02:10:27;100699.97;;;22.57;57.68
13050;BME280;6591;51.446;5.404;2023-07-31T02:12:54;100703.72;;;22.56;57.85
13050;BME280;6591;51.446;5.404;2023-07-31T02:15:21;100690.31;;;22.54;57.44
13050;BME280;6591;51.446;5.404;2023-07-31T02:17:48;100695.75;;;22.54;57.68
13050;BME280;6591;51.446;5.404;2023-07-31T02:20:15;100693.19;;;22.53;57.43
13050;BME280;6591;51.446;5.404;2023-07-31T02:22:42;100688.63;;;22.53;57.52
13050;BME280;6591;51.446;5.404;2023-07-31T02:25:09;100686.91;;;22.52;57.14
13050;BME280;6591;51.446;5.404;2023-07-31T02:27:36;100686.91;;;22.52;57.41
13050;BME280;6591;51.446;5.404;2023-07-31T02:30:03;100674.38;;;22.51;57.46
13050;BME280;6591;51.446;5.404;2023-07-31T02:32:30;100678.09;;;22.50;57.44
13050;BME280;6591;51.446;5.404;2023-07-31T02:34:58;100678.94;;;22.51;57.37
13050;BME280;6591;51.446;5.404;2023-07-31T02:37:25;100677.25;;;22.50;57.10
13050;BME280;6591;51.446;5.404;2023-07-31T02:39:52;100667.41;;;22.49;57.23
13050;BME280;6591;51.446;5.404;2023-07-31T02:42:19;100667.56;;;22.47;57.00
13050;BME280;6591;51.446;5.404;2023-07-31T02:44:46;100666.69;;;22.47;57.20
13050;BME280;6591;51.446;5.404;2023-07-31T02:47:13;100666.56;;;22.48;57.05
13050;BME280;6591;51.446;5.404;2023-07-31T02:49:41;100670.13;;;22.49;57.34
13050;BME280;6591;51.446;5.404;2023-07-31T02:52:08;100672.97;;;22.47;57.22
13050;BME280;6591;51.446;5.404;2023-07-31T02:54:35;100675.69;;;22.47;56.97
13050;BME280;6591;51.446;5.404;2023-07-31T02:57:03;100665.72;;;22.48;57.28
13050;BME280;6591;51.446;5.404;2023-07-31T02:59:30;100669.28;;;22.48;57.20
13050;BME280;6591;51.446;5.404;2023-07-31T03:01:57;100665.56;;;22.49;57.21
13050;BME280;6591;51.446;5.404;2023-07-31T03:04:25;100664.72;;;22.49;56.66
13050;BME280;6591;51.446;5.404;2023-07-31T03:06:52;100655.59;;;22.50;57.00
13050;BME280;6591;51.446;5.404;2023-07-31T03:09:19;100654.75;;;22.49;57.32
13050;BME280;6591;51.446;5.404;2023-07-31T03:11:46;100662.88;;;22.49;57.30
13050;BME280;6591;51.446;5.404;2023-07-31T03:14:13;100665.56;;;22.49;56.94
13050;BME280;6591;51.446;5.404;2023-07-31T03:16:43;100660.16;;;22.49;56.93
13050;BME280;6591;51.446;5.404;2023-07-31T03:19:10;100666.41;;;22.50;57.23
13050;BME280;6591;51.446;5.404;2023-07-31T03:21:38;100666.41;;;22.50;57.07
13050;BME280;6591;51.446;5.404;2023-07-31T03:24:05;100658.97;;;22.52;57.30
13050;BME280;6591;51.446;5.404;2023-07-31T03:26:32;100656.28;;;22.52;56.78
13050;BME280;6591;51.446;5.404;2023-07-31T03:28:59;100659.84;;;22.52;57.10
13050;BME280;6591;51.446;5.404;2023-07-31T03:31:27;100647.03;;;22.54;57.12
13050;BME280;6591;51.446;5.404;2023-07-31T03:33:54;100651.44;;;22.55;57.30
13050;BME280;6591;51.446;5.404;2023-07-31T03:36:21;100638.59;;;22.57;57.19
13050;BME280;6591;51.446;5.404;2023-07-31T03:38:48;100643.00;;;22.58;57.12
13050;BME280;6591;51.446;5.404;2023-07-31T03:41:15;100641.88;;;22.61;57.23
13050;BME280;6591;51.446;5.404;2023-07-31T03:43:48;100637.28;;;22.61;57.39
13050;BME280;6591;51.446;5.404;2023-07-31T03:46:16;100636.66;;;22.67;57.20
13050;BME280;6591;51.446;5.404;2023-07-31T03:48:43;100633.66;;;22.70;57.12
13050;BME280;6591;51.446;5.404;2023-07-31T03:51:10;100627.28;;;22.71;57.14
13050;BME280;6591;51.446;5.404;2023-07-31T03:53:37;100623.56;;;22.72;56.88
13050;BME280;6591;51.446;5.404;2023-07-31T03:56:04;100625.97;;;22.75;57.08
13050;BME280;6591;51.446;5.404;2023-07-31T03:58:31;100621.22;;;22.77;56.83
13050;BME280;6591;51.446;5.404;2023-07-31T04:00:59;100610.25;;;22.79;57.28
13050;BME280;6591;51.446;5.404;2023-07-31T04:03:26;100620.78;;;22.82;57.35
13050;BME280;6591;51.446;5.404;2023-07-31T04:05:55;100600.81;;;22.83;56.83
13050;BME280;6591;51.446;5.404;2023-07-31T04:08:25;100606.63;;;22.88;57.21
13050;BME280;6591;51.446;5.404;2023-07-31T04:10:52;100606.63;;;22.88;57.31
13050;BME280;6591;51.446;5.404;2023-07-31T04:13:19;100598.19;;;22.91;57.00
13050;BME280;6591;51.446;5.404;2023-07-31T04:15:50;100593.66;;;22.92;56.99
13050;BME280;6591;51.446;5.404;2023-07-31T04:18:17;100601.44;;;22.95;57.19
13050;BME280;6591;51.446;5.404;2023-07-31T04:20:44;100590.28;;;22.98;56.95
13050;BME280;6591;51.446;5.404;2023-07-31T04:23:12;100591.69;;;23.02;57.07
13050;BME280;6591;51.446;5.404;2023-07-31T04:25:39;100589.66;;;23.04;56.98
13050;BME280;6591;51.446;5.404;2023-07-31T04:28:06;100587.53;;;23.07;57.29
13050;BME280;6591;51.446;5.404;2023-07-31T04:30:34;100581.94;;;23.09;56.95
13050;BME280;6591;51.446;5.404;2023-07-31T04:33:01;100569.09;;;23.11;57.50
13050;BME280;6591;51.446;5.404;2023-07-31T04:35:29;100571.66;;;23.12;57.08
13050;BME280;6591;51.446;5.404;2023-07-31T04:37:56;100570.47;;;23.15;57.34
13050;BME280;6591;51.446;5.404;2023-07-31T04:40:23;100567.47;;;23.18;57.41
13050;BME280;6591;51.446;5.404;2023-07-31T04:42:50;100564.41;;;23.21;57.24
13050;BME280;6591;51.446;5.404;2023-07-31T04:45:17;100572.22;;;23.24;57.01
13050;BME280;6591;51.446;5.404;2023-07-31T04:47:44;100566.50;;;23.27;56.96
13050;BME280;6591;51.446;5.404;2023-07-31T04:50:11;100564.31;;;23.31;56.87
13050;BME280;6591;51.446;5.404;2023-07-31T04:52:38;100560.47;;;23.33;56.60
13050;BME280;6591;51.446;5.404;2023-07-31T04:55:06;100551.16;;;23.36;56.62
13050;BME280;6591;51.446;5.404;2023-07-31T04:57:33;100548.28;;;23.37;56.60
13050;BME280;6591;51.446;5.404;2023-07-31T05:00:00;100559.97;;;23.38;56.58
13050;BME280;6591;51.446;5.404;2023-07-31T05:02:27;100552.00;;;23.36;56.87
13050;BME280;6591;51.446;5.404;2023-07-31T05:04:54;100550.84;;;23.39;56.79
13050;BME280;6591;51.446;5.404;2023-07-31T05:07:21;100547.28;;;23.38;56.85
13050;BME280;6591;51.446;5.404;2023-07-31T05:09:48;100549.13;;;23.38;57.07
13050;BME280;6591;51.446;5.404;2023-07-31T05:12:15;100546.44;;;23.38;56.86
13050;BME280;6591;51.446;5.404;2023-07-31T05:14:43;100543.88;;;23.36;56.49
13050;BME280;6591;51.446;5.404;2023-07-31T05:17:10;100539.63;;;23.34;56.34
13050;BME280;6591;51.446;5.404;2023-07-31T05:19:37;100534.34;;;23.32;56.50
13050;BME280;6591;51.446;5.404;2023-07-31T05:22:04;100545.50;;;23.29;56.76
13050;BME280;6591;51.446;5.404;2023-07-31T05:24:31;100536.69;;;23.27;57.01
13050;BME280;6591;51.446;5.404;2023-07-31T05:26:58;100538.69;;;23.25;56.83
13050;BME280;6591;51.446;5.404;2023-07-31T05:29:25;100539.88;;;23.22;56.72
13050;BME280;6591;51.446;5.404;2023-07-31T05:31:52;100547.16;;;23.22;57.16
13050;BME280;6591;51.446;5.404;2023-07-31T05:34:19;100538.19;;;23.21;57.21
13050;BME280;6591;51.446;5.404;2023-07-31T05:36:47;100538.31;;;23.20;57.01
13050;BME280;6591;51.446;5.404;2023-07-31T05:39:14;100542.03;;;23.19;57.33
13050;BME280;6591;51.446;5.404;2023-07-31T05:41:41;100538.66;;;23.17;57.13
13050;BME280;6591;51.446;5.404;2023-07-31T05:44:08;100547.25;;;23.12;57.00
13050;BME280;6591;51.446;5.404;2023-07-31T05:46:35;100547.56;;;23.09;57.74
13050;BME280;6591;51.446;5.404;2023-07-31T05:49:02;100542.63;;;23.05;57.63
13050;BME280;6591;51.446;5.404;2023-07-31T05:51:29;100528.41;;;23.03;58.23
13050;BME280;6591;51.446;5.404;2023-07-31T05:53:56;100524.13;;;23.00;57.87
13050;BME280;6591;51.446;5.404;2023-07-31T05:56:23;100516.16;;;22.99;58.01
13050;BME280;6591;51.446;5.404;2023-07-31T05:58:50;100511.91;;;22.96;58.33
13050;BME280;6591;51.446;5.404;2023-07-31T06:01:17;100513.78;;;22.96;58.60
13050;BME280;6591;51.446;5.404;2023-07-31T06:03:45;100517.34;;;22.96;58.90
13050;BME280;6591;51.446;5.404;2023-07-31T06:06:12;100506.50;;;22.96;59.19
13050;BME280;6591;51.446;5.404;2023-07-31T06:08:40;100512.91;;;22.95;59.16
13050;BME280;6591;51.446;5.404;2023-07-31T06:11:07;100508.22;;;22.97;58.86
13050;BME280;6591;51.446;5.404;2023-07-31T06:13:36;100518.19;;;22.97;59.13
13050;BME280;6591;51.446;5.404;2023-07-31T06:16:03;100512.91;;;22.95;59.04
13050;BME280;6591;51.446;5.404;2023-07-31T06:18:33;100502.94;;;22.96;59.09
13050;BME280;6591;51.446;5.404;2023-07-31T06:21:00;100503.94;;;22.95;59.39
13050;BME280;6591;51.446;5.404;2023-07-31T06:23:27;100497.66;;;22.94;59.07
13050;BME280;6591;51.446;5.404;2023-07-31T06:25:54;100494.09;;;22.94;59.18
13050;BME280;6591;51.446;5.404;2023-07-31T06:28:31;100499.53;;;22.94;59.71
13050;BME280;6591;51.446;5.404;2023-07-31T06:30:59;100500.22;;;22.96;59.91
13050;BME280;6591;51.446;5.404;2023-07-31T06:33:27;100498.19;;;22.98;59.63
13050;BME280;6591;51.446;5.404;2023-07-31T06:35:54;100485.69;;;22.97;60.04
13050;BME280;6591;51.446;5.404;2023-07-31T06:38:25;100491.78;;;22.99;59.99
13050;BME280;6591;51.446;5.404;2023-07-31T06:40:53;100490.47;;;23.03;59.54
13050;BME280;6591;51.446;5.404;2023-07-31T06:43:20;100489.28;;;23.05;59.95
13050;BME280;6591;51.446;5.404;2023-07-31T06:45:48;100484.56;;;23.07;59.89
13050;BME280;6591;51.446;5.404;2023-07-31T06:48:18;100485.25;;;23.09;60.09
13050;BME280;6591;51.446;5.404;2023-07-31T06:50:45;100480.53;;;23.11;59.89
13050;BME280;6591;51.446;5.404;2023-07-31T06:53:12;100485.81;;;23.13;60.07
13050;BME280;6591;51.446;5.404;2023-07-31T06:55:39;100474.78;;;23.14;59.97
13050;BME280;6591;51.446;5.404;2023-07-31T06:58:06;100476.63;;;23.14;60.34
13050;BME280;6591;51.446;5.404;2023-07-31T07:00:34;100471.94;;;23.16;60.26
13050;BME280;6591;51.446;5.404;2023-07-31T07:03:01;100479.72;;;23.19;60.34
13050;BME280;6591;51.446;5.404;2023-07-31T07:05:28;100476.00;;;23.20;60.10
13050;BME280;6591;51.446;5.404;2023-07-31T07:07:55;100477.56;;;23.22;60.14
13050;BME280;6591;51.446;5.404;2023-07-31T07:10:22;100474.38;;;23.27;60.43
13050;BME280;6591;51.446;5.404;2023-07-31T07:12:49;100473.88;;;23.32;60.25
13050;BME280;6591;51.446;5.404;2023-07-31T07:15:17;100471.69;;;23.35;60.10
13050;BME280;6591;51.446;5.404;2023-07-31T07:17:44;100466.97;;;23.37;60.05
13050;BME280;6591;51.446;5.404;2023-07-31T07:20:11;100460.53;;;23.38;60.41
13050;BME280;6591;51.446;5.404;2023-07-31T07:22:38;100459.53;;;23.39;60.08
13050;BME280;6591;51.446;5.404;2023-07-31T07:25:05;100464.09;;;23.39;60.02
13050;BME280;6591;51.446;5.404;2023-07-31T07:27:34;100449.53;;;23.40;60.33
13050;BME280;6591;51.446;5.404;2023-07-31T07:30:01;100453.78;;;23.42;60.20
13050;BME280;6591;51.446;5.404;2023-07-31T07:32:29;100446.34;;;23.44;60.24
13050;BME280;6591;51.446;5.404;2023-07-31T07:34:56;100451.63;;;23.46;60.34
13050;BME280;6591;51.446;5.404;2023-07-31T07:37:24;100449.75;;;23.46;60.31
13050;BME280;6591;51.446;5.404;2023-07-31T07:39:50;100448.91;;;23.46;59.87
13050;BME280;6591;51.446;5.404;2023-07-31T07:42:18;100460.59;;;23.46;60.10
13050;BME280;6591;51.446;5.404;2023-07-31T07:44:45;100461.63;;;23.45;59.95
13050;BME280;6591;51.446;5.404;2023-07-31T07:47:13;100462.47;;;23.46;60.23
13050;BME280;6591;51.446;5.404;2023-07-31T07:49:40;100464.31;;;23.45;60.11
13050;BME280;6591;51.446;5.404;2023-07-31T07:52:07;100455.19;;;23.46;59.96
13050;BME280;6591;51.446;5.404;2023-07-31T07:54:34;100452.47;;;23.46;59.99
13050;BME280;6591;51.446;5.404;2023-07-31T07:57:01;100459.59;;;23.47;60.08
13050;BME280;6591;51.446;5.404;2023-07-31T07:59:28;100456.91;;;23.47;60.38
13050;BME280;6591;51.446;5.404;2023-07-31T08:01:55;100457.75;;;23.48;59.95
13050;BME280;6591;51.446;5.404;2023-07-31T08:04:24;100457.75;;;23.48;59.92
13050;BME280;6591;51.446;5.404;2023-07-31T08:06:51;100460.59;;;23.46;59.77
13050;BME280;6591;51.446;5.404;2023-07-31T08:09:18;100447.75;;;23.48;60.18
13050;BME280;6591;51.446;5.404;2023-07-31T08:11:45;100458.44;;;23.50;60.28
13050;BME280;6591;51.446;5.404;2023-07-31T08:14:13;100454.38;;;23.54;60.29
13050;BME280;6591;51.446;5.404;2023-07-31T08:16:40;100444.41;;;23.54;60.45
13050;BME280;6591;51.446;5.404;2023-07-31T08:19:08;100453.91;;;23.58;60.33
13050;BME280;6591;51.446;5.404;2023-07-31T08:21:35;100456.47;;;23.60;60.21
13050;BME280;6591;51.446;5.404;2023-07-31T08:24:02;100451.84;;;23.60;60.56
13050;BME280;6591;51.446;5.404;2023-07-31T08:26:29;100447.28;;;23.61;60.36
13050;BME280;6591;51.446;5.404;2023-07-31T08:28:56;100452.56;;;23.62;60.38
13050;BME280;6591;51.446;5.404;2023-07-31T08:31:24;100449.00;;;23.62;60.02
13050;BME280;6591;51.446;5.404;2023-07-31T08:33:51;100444.41;;;23.62;60.00
13050;BME280;6591;51.446;5.404;2023-07-31T08:36:18;100456.13;;;23.63;60.34
13050;BME280;6591;51.446;5.404;2023-07-31T08:38:46;100447.28;;;23.61;60.00
13050;BME280;6591;51.446;5.404;2023-07-31T08:41:13;100448.13;;;23.61;60.12
13050;BME280;6591;51.446;5.404;2023-07-31T08:43:41;100450.00;;;23.61;60.25
13050;BME280;6591;51.446;5.404;2023-07-31T08:46:09;100446.44;;;23.60;60.12
13050;BME280;6591;51.446;5.404;2023-07-31T08:48:37;100443.06;;;23.58;60.39
13050;BME280;6591;51.446;5.404;2023-07-31T08:51:07;100449.31;;;23.59;60.09
13050;BME280;6591;51.446;5.404;2023-07-31T08:53:34;100441.19;;;23.59;60.45
13050;BME280;6591;51.446;5.404;2023-07-31T08:56:03;100438.16;;;23.62;60.29
13050;BME280;6591;51.446;5.404;2023-07-31T08:58:32;100443.25;;;23.65;60.68
13050;BME280;6591;51.446;5.404;2023-07-31T09:01:03;100444.63;;;23.69;60.65
13050;BME280;6591;51.446;5.404;2023-07-31T09:03:34;100443.13;;;23.75;60.80
13050;BME280;6591;51.446;5.404;2023-07-31T09:06:03;100433.28;;;23.82;60.52
13050;BME280;6591;51.446;5.404;2023-07-31T09:08:33;100438.91;;;23.88;60.69
13050;BME280;6591;51.446;5.404;2023-07-31T09:11:02;100437.91;;;23.97;60.54
13050;BME280;6591;51.446;5.404;2023-07-31T09:13:31;100446.25;;;24.04;60.71
13050;BME280;6591;51.446;5.404;2023-07-31T09:15:59;100440.84;;;24.12;60.89
13050;BME280;6591;51.446;5.404;2023-07-31T09:18:26;100423.59;;;24.21;60.86
13050;BME280;6591;51.446;5.404;2023-07-31T09:21:04;100421.91;;;24.28;60.71
13050;BME280;6591;51.446;5.404;2023-07-31T09:23:46;100421.22;;;24.34;60.38
13050;BME280;6591;51.446;5.404;2023-07-31T09:26:36;100419.53;;;24.41;60.44
13050;BME280;6591;51.446;5.404;2023-07-31T09:29:19;100418.50;;;24.51;60.46
13050;BME280;6591;51.446;5.404;2023-07-31T09:31:46;100418.00;;;24.63;60.29
13050;BME280;6591;51.446;5.404;2023-07-31T09:34:14;100431.41;;;24.73;60.33
13050;BME280;6591;51.446;5.404;2023-07-31T09:36:49;100418.16;;;24.78;60.16
13050;BME280;6591;51.446;5.404;2023-07-31T09:39:18;100413.56;;;24.86;59.72
13050;BME280;6591;51.446;5.404;2023-07-31T09:41:56;100419.56;;;24.90;59.59
13050;BME280;6591;51.446;5.404;2023-07-31T09:44:42;100423.97;;;24.91;59.74
13050;BME280;6591;51.446;5.404;2023-07-31T09:47:23;100419.88;;;24.95;59.32
13050;BME280;6591;51.446;5.404;2023-07-31T09:49:52;100420.22;;;25.00;59.34
13050;BME280;6591;51.446;5.404;2023-07-31T09:52:19;100417.13;;;25.03;59.39
13050;BME280;6591;51.446;5.404;2023-07-31T09:54:46;100416.28;;;25.03;59.04
13050;BME280;6591;51.446;5.404;2023-07-31T09:57:16;100420.69;;;25.04;58.88
13050;BME280;6591;51.446;5.404;2023-07-31T09:59:46;100423.25;;;25.05;59.38
13050;BME280;6591;51.446;5.404;2023-07-31T10:02:22;100414.41;;;25.03;58.76
13050;BME280;6591;51.446;5.404;2023-07-31T10:04:50;100418.47;;;25.07;58.98
13050;BME280;6591;51.446;5.404;2023-07-31T10:07:20;100412.22;;;25.07;59.15
13050;BME280;6591;51.446;5.404;2023-07-31T10:09:51;100410.00;;;25.10;58.79
13050;BME280;6591;51.446;5.404;2023-07-31T10:12:27;100410.00;;;25.10;58.66
13050;BME280;6591;51.446;5.404;2023-07-31T10:14:56;100403.34;;;25.13;58.53
13050;BME280;6591;51.446;5.404;2023-07-31T10:17:24;100411.00;;;25.17;58.91
13050;BME280;6591;51.446;5.404;2023-07-31T10:19:52;100407.06;;;25.20;58.22
13050;BME280;6591;51.446;5.404;2023-07-31T10:22:20;100399.06;;;25.26;59.21
13050;BME280;6591;51.446;5.404;2023-07-31T10:24:50;100399.03;;;25.35;59.12
13050;BME280;6591;51.446;5.404;2023-07-31T10:27:17;100399.88;;;25.43;58.70
13050;BME280;6591;51.446;5.404;2023-07-31T10:29:46;100402.91;;;25.48;58.29
13050;BME280;6591;51.446;5.404;2023-07-31T10:32:17;100397.94;;;25.52;58.11
13050;BME280;6591;51.446;5.404;2023-07-31T10:34:47;100414.09;;;25.53;58.12
13050;BME280;6591;51.446;5.404;2023-07-31T10:37:36;100404.25;;;25.52;58.15
13050;BME280;6591;51.446;5.404;2023-07-31T10:40:13;100407.31;;;25.57;57.76
13050;BME280;6591;51.446;5.404;2023-07-31T10:42:52;100416.63;;;25.63;57.72
13050;BME280;6591;51.446;5.404;2023-07-31T10:45:38;100413.38;;;25.67;57.50
13050;BME280;6591;51.446;5.404;2023-07-31T10:48:16;100416.56;;;25.71;56.92
13050;BME280;6591;51.446;5.404;2023-07-31T10:50:54;100409.41;;;25.78;57.58
13050;BME280;6591;51.446;5.404;2023-07-31T10:53:29;100418.56;;;25.85;57.08
13050;BME280;6591;51.446;5.404;2023-07-31T10:56:02;100404.22;;;25.91;56.81
13050;BME280;6591;51.446;5.404;2023-07-31T10:58:31;100399.09;;;25.96;56.92
13050;BME280;6591;51.446;5.404;2023-07-31T11:01:01;100402.09;;;26.01;56.96
13050;BME280;6591;51.446;5.404;2023-07-31T11:03:50;100395.31;;;26.05;56.95
13050;BME280;6591;51.446;5.404;2023-07-31T11:06:21;100397.59;;;26.17;57.09
13050;BME280;6591;51.446;5.404;2023-07-31T11:08:50;100392.81;;;26.27;56.62
13050;BME280;6591;51.446;5.404;2023-07-31T11:11:20;100399.19;;;26.34;56.17
13050;BME280;6591;51.446;5.404;2023-07-31T11:13:54;100406.16;;;26.36;56.52
13050;BME280;6591;51.446;5.404;2023-07-31T11:16:24;100400.16;;;26.41;56.50
13050;BME280;6591;51.446;5.404;2023-07-31T11:18:53;100388.53;;;26.47;55.81
13050;BME280;6591;51.446;5.404;2023-07-31T11:21:24;100388.84;;;26.52;56.38
13050;BME280;6591;51.446;5.404;2023-07-31T11:23:56;100385.19;;;26.60;56.03
13050;BME280;6591;51.446;5.404;2023-07-31T11:26:25;100386.31;;;26.65;56.34
13050;BME280;6591;51.446;5.404;2023-07-31T11:28:52;100389.34;;;26.70;56.16
13050;BME280;6591;51.446;5.404;2023-07-31T11:31:19;100379.97;;;26.73;55.58
13050;BME280;6591;51.446;5.404;2023-07-31T11:33:47;100381.75;;;26.80;55.97
13050;BME280;6591;51.446;5.404;2023-07-31T11:36:16;100378.81;;;26.90;55.66
13050;BME280;6591;51.446;5.404;2023-07-31T11:38:44;100380.59;;;26.97;55.81
13050;BME280;6591;51.446;5.404;2023-07-31T11:41:15;100378.53;;;27.00;55.54
13050;BME280;6591;51.446;5.404;2023-07-31T11:43:48;100377.19;;;26.95;54.81
13050;BME280;6591;51.446;5.404;2023-07-31T11:46:15;100388.84;;;26.89;54.39
13050;BME280;6591;51.446;5.404;2023-07-31T11:48:43;100378.00;;;26.81;54.47
13050;BME280;6591;51.446;5.404;2023-07-31T11:51:12;100367.19;;;26.73;54.47
13050;BME280;6591;51.446;5.404;2023-07-31T11:53:53;100362.66;;;26.66;54.99
13050;BME280;6591;51.446;5.404;2023-07-31T11:56:24;100372.69;;;26.65;55.36
13050;BME280;6591;51.446;5.404;2023-07-31T11:58:56;100368.47;;;26.63;54.95
13050;BME280;6591;51.446;5.404;2023-07-31T12:01:26;100368.84;;;26.60;54.57
13050;BME280;6591;51.446;5.404;2023-07-31T12:03:57;100361.59;;;26.52;55.10
13050;BME280;6591;51.446;5.404;2023-07-31T12:06:37;100365.44;;;26.43;55.08
13050;BME280;6591;51.446;5.404;2023-07-31T12:09:06;100363.25;;;26.38;54.72
13050;BME280;6591;51.446;5.404;2023-07-31T12:11:46;100365.19;;;26.30;55.09
13050;BME280;6591;51.446;5.404;2023-07-31T12:14:25;100362.84;;;26.27;55.31
13050;BME280;6591;51.446;5.404;2023-07-31T12:16:59;100354.69;;;26.27;55.34
13050;BME280;6591;51.446;5.404;2023-07-31T12:19:26;100365.19;;;26.30;55.89
13050;BME280;6591;51.446;5.404;2023-07-31T12:21:59;100355.81;;;26.32;55.82
13050;BME280;6591;51.446;5.404;2023-07-31T12:24:27;100348.31;;;26.34;55.41
13050;BME280;6591;51.446;5.404;2023-07-31T12:26:55;100336.00;;;26.38;55.37
13050;BME280;6591;51.446;5.404;2023-07-31T12:29:22;100333.97;;;26.40;55.14
13050;BME280;6591;51.446;5.404;2023-07-31T12:31:49;100330.38;;;26.40;55.54
13050;BME280;6591;51.446;5.404;2023-07-31T12:34:20;100324.94;;;26.40;54.96
13050;BME280;6591;51.446;5.404;2023-07-31T12:36:48;100339.41;;;26.40;54.85
13050;BME280;6591;51.446;5.404;2023-07-31T12:39:15;100331.63;;;26.37;55.03
13050;BME280;6591;51.446;5.404;2023-07-31T12:41:42;100331.63;;;26.37;54.76
13050;BME280;6591;51.446;5.404;2023-07-31T12:44:10;100329.75;;;26.38;54.80
13050;BME280;6591;51.446;5.404;2023-07-31T12:46:38;100323.06;;;26.40;54.97
13050;BME280;6591;51.446;5.404;2023-07-31T12:49:05;100308.88;;;26.45;55.46
13050;BME280;6591;51.446;5.404;2023-07-31T12:51:32;100311.91;;;26.50;55.67
13050;BME280;6591;51.446;5.404;2023-07-31T12:53:59;100297.16;;;26.59;55.50
13050;BME280;6591;51.446;5.404;2023-07-31T12:56:26;100298.97;;;26.67;55.50
13050;BME280;6591;51.446;5.404;2023-07-31T12:58:53;100303.09;;;26.77;55.18
13050;BME280;6591;51.446;5.404;2023-07-31T13:01:20;100300.28;;;26.85;54.96
13050;BME280;6591;51.446;5.404;2023-07-31T13:03:48;100306.53;;;26.94;54.91
13050;BME280;6591;51.446;5.404;2023-07-31T13:06:15;100291.47;;;26.98;54.58
13050;BME280;6591;51.446;5.404;2023-07-31T13:08:42;100294.88;;;27.00;54.56
13050;BME280;6591;51.446;5.404;2023-07-31T13:11:09;100300.09;;;27.02;54.20
13050;BME280;6591;51.446;5.404;2023-07-31T13:13:36;100314.41;;;27.04;54.68
13050;BME280;6591;51.446;5.404;2023-07-31T13:16:03;100297.66;;;27.07;54.20